Terminal Aerodrome Forecast
Issued by NWS

Current Version | Previous Version | Graphics & Text | Print | Product List | Glossary On
Versions: 1 2 3 4 5 6 7 8 9 10 11 12 13 14 15 16 17 18 19 20 21 22 23 24 25 26 27 28 29 30 31 32 33 34 35 36
000
FTUS41 KRNK 031353 AAA
TAFLWB
TAF AMD
KLWB 031353Z 0314/0412 VRB04KT 2SM +RA OVC010 WS014/18043KT
     FM031600 20009KT 3SM -SHRA BR OVC010 WS012/22040KT
     FM031800 24009KT 2SM -SHRA BR OVC014
     FM032100 24005KT P6SM BKN025
     FM040300 28006KT P6SM OVC050
     FM040600 30004KT P6SM OVC030=

USA.gov is the U.S. government's official web portal to all federal, state and local government web resources and services.